createdAt,value
2023-01-25T00:00:00.906Z,3.78
2023-01-25T00:02:27.969Z,3.67
2023-01-25T00:04:54.778Z,5.22
2023-01-25T00:07:21.348Z,3.03
2023-01-25T00:09:47.887Z,3.60
2023-01-25T00:12:14.723Z,4.10
2023-01-25T00:14:41.375Z,4.22
2023-01-25T00:17:08.008Z,3.70
2023-01-25T00:19:34.572Z,3.90
2023-01-25T00:22:01.141Z,3.78
2023-01-25T00:24:28.936Z,4.20
2023-01-25T00:26:55.510Z,4.00
2023-01-25T00:29:22.103Z,3.72
2023-01-25T00:31:59.060Z,4.55
2023-01-25T00:34:25.647Z,4.13
2023-01-25T00:36:57.012Z,4.07
2023-01-25T00:39:26.100Z,3.45
2023-01-25T00:41:52.691Z,5.30
2023-01-25T00:44:19.755Z,3.40
2023-01-25T00:46:47.169Z,3.42
2023-01-25T00:49:25.724Z,3.88
2023-01-25T00:51:54.018Z,4.43
2023-01-25T00:54:20.839Z,5.07
2023-01-25T00:56:47.623Z,4.03
2023-01-25T00:59:15.335Z,4.13
2023-01-25T01:01:42.646Z,4.53
2023-01-25T01:04:09.504Z,4.82
2023-01-25T01:06:38.085Z,4.43
2023-01-25T01:09:07.691Z,5.13
2023-01-25T01:11:34.377Z,4.75
2023-01-25T01:14:01.059Z,4.90
2023-01-25T01:16:27.802Z,4.22
2023-01-25T01:18:54.502Z,4.20
2023-01-25T01:21:21.649Z,4.25
2023-01-25T01:23:48.665Z,5.00
2023-01-25T01:26:17.085Z,4.50
2023-01-25T01:28:43.725Z,4.30
2023-01-25T01:31:17.807Z,4.18
2023-01-25T01:33:53.410Z,3.80
2023-01-25T01:36:22.872Z,4.22
2023-01-25T01:38:50.026Z,4.18
2023-01-25T01:41:17.414Z,4.50
2023-01-25T01:43:44.858Z,5.18
2023-01-25T01:46:15.675Z,4.18
2023-01-25T01:48:50.892Z,3.95
2023-01-25T01:51:20.694Z,5.15
2023-01-25T01:54:21.663Z,4.70
2023-01-25T01:56:57.479Z,4.43
2023-01-25T01:59:30.851Z,3.90
2023-01-25T02:01:57.446Z,4.72
2023-01-25T02:04:27.063Z,4.13
2023-01-25T02:07:02.587Z,4.85
2023-01-25T02:09:32.218Z,4.97
2023-01-25T02:12:00.420Z,5.35
2023-01-25T02:14:29.019Z,4.43
2023-01-25T02:16:56.455Z,4.60
2023-01-25T02:19:59.922Z,4.88
2023-01-25T02:22:39.039Z,5.30
2023-01-25T02:25:10.461Z,5.50
2023-01-25T02:27:43.178Z,5.05
2023-01-25T02:30:10.331Z,4.60
2023-01-25T02:32:37.666Z,4.72
2023-01-25T02:35:06.435Z,4.72
2023-01-25T02:37:33.443Z,4.35
2023-01-25T02:40:00.220Z,5.10
2023-01-25T02:42:31.888Z,4.63
2023-01-25T02:45:01.540Z,4.90
2023-01-25T02:47:28.137Z,5.55
2023-01-25T02:49:54.703Z,4.43
2023-01-25T02:52:21.305Z,4.15
2023-01-25T02:54:47.974Z,5.13
2023-01-25T02:57:14.580Z,5.15
2023-01-25T02:59:43.449Z,5.03
2023-01-25T03:02:11.182Z,4.85
2023-01-25T03:04:37.879Z,4.88
2023-01-25T03:07:04.779Z,3.88
2023-01-25T03:09:31.421Z,5.15
2023-01-25T03:11:58.667Z,4.45
2023-01-25T03:14:26.696Z,4.55
2023-01-25T03:16:53.259Z,4.32
2023-01-25T03:19:22.775Z,4.53
2023-01-25T03:21:49.512Z,4.25
2023-01-25T03:24:16.256Z,4.28
2023-01-25T03:27:04.835Z,3.80
2023-01-25T03:29:51.710Z,4.40
2023-01-25T03:32:22.272Z,4.60
2023-01-25T03:34:49.007Z,3.47
2023-01-25T03:37:17.171Z,4.55
2023-01-25T03:39:44.137Z,4.43
2023-01-25T03:42:11.686Z,4.43
2023-01-25T03:44:38.570Z,4.07
2023-01-25T03:47:05.316Z,3.38
2023-01-25T03:49:33.004Z,4.32
2023-01-25T03:52:00.619Z,4.47
2023-01-25T03:54:34.685Z,4.43
2023-01-25T03:57:01.606Z,5.05
2023-01-25T03:59:29.195Z,4.65
2023-01-25T04:01:55.925Z,4.25
2023-01-25T04:04:23.021Z,4.65
2023-01-25T04:06:50.339Z,4.18
2023-01-25T04:09:17.786Z,3.45
2023-01-25T04:11:51.098Z,3.80
2023-01-25T04:14:25.471Z,3.58
2023-01-25T04:17:05.366Z,2.80
2023-01-25T04:19:41.572Z,2.88
2023-01-25T04:22:13.003Z,3.20
2023-01-25T04:24:39.761Z,3.75
2023-01-25T04:27:06.661Z,3.92
2023-01-25T04:29:41.644Z,3.15
2023-01-25T04:32:13.925Z,3.55
2023-01-25T04:34:40.858Z,3.92
2023-01-25T04:37:15.566Z,3.38
2023-01-25T04:39:52.510Z,3.65
2023-01-25T04:42:19.880Z,4.82
2023-01-25T04:44:50.116Z,4.55
2023-01-25T04:47:16.953Z,4.00
2023-01-25T04:49:43.567Z,3.67
2023-01-25T04:52:10.289Z,3.33
2023-01-25T04:54:37.166Z,3.25
2023-01-25T04:57:04.524Z,3.50
2023-01-25T04:59:31.126Z,2.42
2023-01-25T05:01:57.781Z,3.35
2023-01-25T05:04:25.059Z,3.65
2023-01-25T05:06:51.885Z,3.72
2023-01-25T05:09:18.484Z,3.20
2023-01-25T05:11:46.155Z,2.92
2023-01-25T05:14:20.808Z,3.13
2023-01-25T05:16:47.597Z,2.80
2023-01-25T05:19:14.580Z,3.00
2023-01-25T05:21:58.251Z,2.75
2023-01-25T05:24:29.509Z,2.15
2023-01-25T05:27:01.193Z,3.25
2023-01-25T05:29:40.029Z,2.83
2023-01-25T05:32:18.578Z,2.95
2023-01-25T05:34:45.969Z,3.42
2023-01-25T05:37:16.837Z,2.22
2023-01-25T05:39:45.347Z,3.25
2023-01-25T05:42:17.467Z,2.75
2023-01-25T05:44:47.058Z,3.78
2023-01-25T05:47:16.882Z,2.75
2023-01-25T05:49:44.096Z,2.90
2023-01-25T05:52:17.364Z,2.50
2023-01-25T05:54:44.427Z,3.40
2023-01-25T05:57:16.275Z,3.20
2023-01-25T05:59:43.883Z,3.67
2023-01-25T06:02:13.065Z,3.72
2023-01-25T06:04:40.653Z,3.15
2023-01-25T06:07:08.979Z,2.75
2023-01-25T06:09:36.201Z,2.75
2023-01-25T06:12:04.080Z,3.63
2023-01-25T06:14:30.733Z,2.75
2023-01-25T06:16:58.075Z,3.35
2023-01-25T06:19:50.989Z,3.78
2023-01-25T06:22:32.800Z,3.05
2023-01-25T06:24:59.390Z,3.20
2023-01-25T06:27:25.978Z,3.90
2023-01-25T06:29:52.571Z,3.50
2023-01-25T06:32:19.209Z,3.33
2023-01-25T06:34:46.414Z,3.83
2023-01-25T06:37:20.215Z,3.17
2023-01-25T06:39:46.917Z,2.97
2023-01-25T06:42:13.494Z,3.97
2023-01-25T06:44:40.197Z,4.10
2023-01-25T06:47:09.071Z,4.30
2023-01-25T06:49:35.649Z,6.50
2023-01-25T06:52:02.255Z,3.72
2023-01-25T06:54:28.860Z,3.40
2023-01-25T06:56:55.469Z,3.50
2023-01-25T06:59:22.105Z,3.83
2023-01-25T07:01:48.727Z,3.85
2023-01-25T07:04:15.870Z,4.65
2023-01-25T07:06:42.569Z,3.75
2023-01-25T07:09:12.812Z,4.53
2023-01-25T07:11:39.397Z,3.88
2023-01-25T07:14:06.225Z,3.22
2023-01-25T07:16:36.918Z,2.75
2023-01-25T07:19:04.918Z,3.00
2023-01-25T07:21:31.609Z,3.70
2023-01-25T07:24:02.707Z,2.67
2023-01-25T07:26:30.036Z,4.20
2023-01-25T07:28:58.619Z,2.92
2023-01-25T07:31:26.387Z,2.92
2023-01-25T07:33:55.598Z,2.70
2023-01-25T07:36:23.110Z,2.22
2023-01-25T07:38:53.397Z,2.78
2023-01-25T07:41:20.014Z,2.75
2023-01-25T07:43:46.881Z,2.53
2023-01-25T07:46:20.542Z,2.60
2023-01-25T07:48:52.371Z,2.90
2023-01-25T07:53:53.817Z,3.65
2023-01-25T07:56:26.477Z,2.85
2023-01-25T07:58:54.749Z,3.15
2023-01-25T08:01:23.721Z,2.88
2023-01-25T08:03:50.969Z,3.00
2023-01-25T08:06:22.759Z,3.15
2023-01-25T08:11:20.273Z,2.85
2023-01-25T08:13:48.989Z,2.45
2023-01-25T08:16:17.819Z,3.05
2023-01-25T08:18:50.777Z,2.55
2023-01-25T08:21:18.765Z,3.03
2023-01-25T08:23:45.835Z,3.17
2023-01-25T08:26:14.513Z,2.90
2023-01-25T08:28:41.117Z,2.70
2023-01-25T08:31:10.050Z,2.92
2023-01-25T08:33:36.734Z,3.25
2023-01-25T08:36:04.047Z,3.47
2023-01-25T08:38:31.321Z,2.50
2023-01-25T08:41:06.029Z,3.67
2023-01-25T08:43:32.846Z,4.47
2023-01-25T08:45:59.432Z,4.13
2023-01-25T08:48:26.137Z,4.05
2023-01-25T08:50:52.737Z,3.92
2023-01-25T08:53:19.551Z,3.40
2023-01-25T08:55:46.474Z,3.22
2023-01-25T08:58:16.136Z,3.70
2023-01-25T09:00:44.134Z,3.45
2023-01-25T09:03:11.885Z,3.30
2023-01-25T09:05:39.794Z,3.45
2023-01-25T09:08:08.247Z,3.38
2023-01-25T09:10:35.747Z,3.65
2023-01-25T09:13:02.604Z,2.85
2023-01-25T09:15:29.177Z,3.55
2023-01-25T09:17:57.018Z,3.35
2023-01-25T09:20:24.586Z,3.35
2023-01-25T09:22:51.225Z,3.40
2023-01-25T09:25:18.204Z,3.70
2023-01-25T09:27:44.787Z,3.75
2023-01-25T09:30:18.144Z,3.70
2023-01-25T09:32:50.929Z,3.20
2023-01-25T09:35:17.801Z,3.03
2023-01-25T09:37:44.480Z,3.67
2023-01-25T09:40:23.671Z,3.45
2023-01-25T09:42:53.197Z,3.42
2023-01-25T09:45:31.703Z,3.67
2023-01-25T09:48:17.032Z,3.70
2023-01-25T09:51:05.848Z,3.72
2023-01-25T09:53:37.060Z,3.92
2023-01-25T09:56:17.670Z,4.07
2023-01-25T09:58:48.693Z,3.03
2023-01-25T10:01:37.472Z,3.25
2023-01-25T10:04:11.526Z,3.15
2023-01-25T10:06:44.016Z,3.33
2023-01-25T10:09:37.448Z,3.42
2023-01-25T10:12:16.095Z,3.35
2023-01-25T10:14:42.719Z,3.10
2023-01-25T10:17:33.698Z,2.95
2023-01-25T10:20:25.394Z,2.92
2023-01-25T10:23:10.266Z,2.83
2023-01-25T10:25:45.867Z,3.75
2023-01-25T10:28:30.004Z,2.80
2023-01-25T10:31:11.027Z,2.90
2023-01-25T10:33:43.194Z,3.35
2023-01-25T10:36:14.851Z,3.60
2023-01-25T10:38:45.511Z,3.40
2023-01-25T10:41:21.481Z,3.13
2023-01-25T10:43:48.057Z,3.70
2023-01-25T10:46:21.701Z,3.13
2023-01-25T10:48:48.411Z,3.33
2023-01-25T10:51:33.647Z,2.78
2023-01-25T10:54:06.087Z,3.95
2023-01-25T10:56:40.483Z,3.58
2023-01-25T10:59:25.568Z,4.38
2023-01-25T11:01:52.790Z,3.63
2023-01-25T11:04:35.745Z,3.38
2023-01-25T11:07:05.748Z,3.35
2023-01-25T11:09:40.220Z,4.05
2023-01-25T11:12:20.874Z,3.72
2023-01-25T11:14:52.616Z,4.28
2023-01-25T11:17:31.402Z,4.10
2023-01-25T11:20:15.024Z,4.07
2023-01-25T11:22:54.336Z,3.55
2023-01-25T11:25:33.271Z,4.05
2023-01-25T11:28:21.772Z,4.32
2023-01-25T11:30:50.794Z,5.05
2023-01-25T11:33:20.101Z,5.07
2023-01-25T11:36:10.998Z,4.68
2023-01-25T11:38:44.379Z,5.28
2023-01-25T11:41:35.079Z,5.03
2023-01-25T11:44:39.694Z,4.15
2023-01-25T11:47:15.169Z,3.78
2023-01-25T11:49:49.796Z,3.53
2023-01-25T11:52:40.168Z,4.30
2023-01-25T11:55:40.317Z,4.65
2023-01-25T11:58:32.182Z,4.72
2023-01-25T12:01:01.478Z,3.95
2023-01-25T12:03:40.387Z,3.95
2023-01-25T12:06:38.288Z,3.97
2023-01-25T12:09:26.947Z,5.05
2023-01-25T12:12:25.843Z,3.90
2023-01-25T12:14:58.417Z,3.60
2023-01-25T12:17:24.953Z,4.13
2023-01-25T12:20:31.411Z,4.55
2023-01-25T12:23:31.537Z,3.88
2023-01-25T12:26:08.524Z,3.75
2023-01-25T12:28:39.583Z,3.78
2023-01-25T12:31:20.569Z,3.30
2023-01-25T12:34:03.968Z,3.90
2023-01-25T12:36:32.902Z,3.75
2023-01-25T12:39:11.418Z,4.28
2023-01-25T12:42:04.174Z,3.72
2023-01-25T12:44:30.671Z,4.10
2023-01-25T12:47:21.686Z,3.78
2023-01-25T12:50:14.399Z,3.75
2023-01-25T12:52:46.781Z,4.22
2023-01-25T12:55:15.731Z,5.90
2023-01-25T12:57:48.396Z,5.10
2023-01-25T13:00:26.128Z,4.05
2023-01-25T13:03:12.535Z,3.67
2023-01-25T13:05:47.132Z,4.90
2023-01-25T13:08:35.507Z,4.38
2023-01-25T13:11:16.717Z,3.83
2023-01-25T13:13:43.574Z,3.80
2023-01-25T13:16:35.061Z,4.75
2023-01-25T13:19:01.847Z,3.13
2023-01-25T13:21:37.194Z,4.18
2023-01-25T13:24:20.429Z,5.47
2023-01-25T13:26:51.640Z,5.30
2023-01-25T13:29:36.323Z,4.72
2023-01-25T13:32:05.078Z,4.35
2023-01-25T13:34:34.710Z,5.05
2023-01-25T13:37:16.817Z,4.20
2023-01-25T13:40:06.864Z,4.50
2023-01-25T13:42:39.314Z,4.28
2023-01-25T13:45:21.178Z,4.00
2023-01-25T13:48:03.166Z,4.10
2023-01-25T13:53:35.332Z,3.90
2023-01-25T13:56:02.610Z,3.95
2023-01-25T13:58:44.907Z,4.10
2023-01-25T14:01:17.222Z,5.07
2023-01-25T14:03:59.466Z,4.65
2023-01-25T14:06:27.983Z,4.72
2023-01-25T14:08:58.198Z,5.00
2023-01-25T14:11:28.373Z,6.00
2023-01-25T14:14:00.291Z,5.78
2023-01-25T14:16:29.941Z,5.63
2023-01-25T14:19:18.012Z,5.20
2023-01-25T14:21:44.596Z,5.75
2023-01-25T14:24:11.724Z,5.15
2023-01-25T14:26:41.929Z,5.47
2023-01-25T14:29:31.951Z,4.53
2023-01-25T14:31:59.865Z,4.45
2023-01-25T14:34:27.030Z,4.43
2023-01-25T14:37:16.142Z,3.95
2023-01-25T14:39:42.728Z,6.95
2023-01-25T14:42:09.888Z,5.88
2023-01-25T14:44:36.731Z,6.35
2023-01-25T14:47:32.332Z,4.35
2023-01-25T14:50:36.211Z,3.92
2023-01-25T14:53:24.027Z,3.78
2023-01-25T14:55:51.389Z,4.22
2023-01-25T14:58:21.811Z,4.50
2023-01-25T15:01:02.955Z,4.45
2023-01-25T15:03:31.275Z,5.25
2023-01-25T15:06:03.009Z,3.80
2023-01-25T15:08:35.692Z,5.72
2023-01-25T15:11:20.949Z,4.80
2023-01-25T15:13:47.862Z,4.90
2023-01-25T15:16:16.668Z,3.92
2023-01-25T15:18:51.455Z,4.78
2023-01-25T15:21:18.909Z,4.00
2023-01-25T15:23:48.228Z,3.60
2023-01-25T15:26:20.912Z,4.50
2023-01-25T15:28:49.005Z,3.55
2023-01-25T15:31:24.594Z,3.80
2023-01-25T15:33:51.561Z,4.53
2023-01-25T15:36:18.634Z,3.25
2023-01-25T15:38:45.903Z,3.65
2023-01-25T15:41:13.785Z,3.85
2023-01-25T15:43:40.998Z,3.22
2023-01-25T15:46:18.006Z,3.47
2023-01-25T15:48:46.278Z,3.28
2023-01-25T15:51:13.483Z,4.00
2023-01-25T15:53:40.403Z,3.90
2023-01-25T15:56:13.891Z,4.32
2023-01-25T15:58:43.216Z,4.82
2023-01-25T16:01:10.207Z,4.55
2023-01-25T16:03:37.014Z,4.80
2023-01-25T16:06:07.492Z,3.90
2023-01-25T16:08:34.566Z,3.97
2023-01-25T16:11:01.139Z,4.10
2023-01-25T16:13:27.713Z,3.88
2023-01-25T16:15:56.646Z,4.65
2023-01-25T16:18:23.454Z,4.60
2023-01-25T16:20:50.269Z,4.30
2023-01-25T16:23:16.864Z,3.88
2023-01-25T16:25:44.750Z,3.83
2023-01-25T16:28:15.948Z,4.13
2023-01-25T16:30:44.995Z,3.90
2023-01-25T16:33:11.851Z,3.85
2023-01-25T16:35:38.451Z,4.07
2023-01-25T16:38:05.041Z,3.90
2023-01-25T16:40:39.741Z,3.88
2023-01-25T16:43:06.518Z,4.40
2023-01-25T16:45:33.129Z,4.15
2023-01-25T16:48:00.138Z,3.88
2023-01-25T16:50:26.712Z,3.97
2023-01-25T16:52:54.997Z,3.72
2023-01-25T16:55:21.665Z,4.38
2023-01-25T16:57:51.782Z,4.75
2023-01-25T17:00:18.893Z,4.25
2023-01-25T17:02:58.115Z,4.03
2023-01-25T17:05:29.017Z,4.72
2023-01-25T17:07:55.860Z,5.10
2023-01-25T17:10:22.559Z,4.88
2023-01-25T17:12:49.806Z,5.00
2023-01-25T17:15:19.864Z,4.00
2023-01-25T17:17:46.737Z,3.92
2023-01-25T17:20:13.349Z,3.42
2023-01-25T17:22:40.930Z,4.10
2023-01-25T17:25:08.014Z,3.88
2023-01-25T17:27:34.540Z,3.75
2023-01-25T17:30:01.209Z,4.03
2023-01-25T17:32:28.705Z,4.75
2023-01-25T17:34:58.932Z,3.60
2023-01-25T17:37:25.915Z,4.30
2023-01-25T17:39:52.770Z,4.00
2023-01-25T17:42:19.474Z,3.85
2023-01-25T17:44:46.030Z,4.18
2023-01-25T17:47:12.595Z,4.05
2023-01-25T17:49:39.313Z,5.38
2023-01-25T17:52:06.167Z,4.43
2023-01-25T17:54:32.765Z,3.95
2023-01-25T17:56:59.703Z,3.90
2023-01-25T17:59:26.301Z,4.32
2023-01-25T18:01:52.964Z,4.10
2023-01-25T18:04:20.397Z,3.45
2023-01-25T18:06:47.020Z,5.50
2023-01-25T18:09:16.268Z,5.60
2023-01-25T18:11:47.954Z,4.20
2023-01-25T18:14:16.875Z,4.50
2023-01-25T18:16:44.803Z,4.13
2023-01-25T18:19:12.010Z,5.90
2023-01-25T18:21:38.752Z,6.22
2023-01-25T18:24:22.700Z,5.28
2023-01-25T18:26:50.804Z,6.45
2023-01-25T18:29:17.356Z,7.43
2023-01-25T18:31:45.518Z,5.32
2023-01-25T18:34:12.207Z,3.90
2023-01-25T18:36:38.779Z,4.55
2023-01-25T18:39:06.817Z,3.85
2023-01-25T18:41:33.411Z,3.60
2023-01-25T18:44:00.003Z,3.45
2023-01-25T18:46:26.641Z,3.95
2023-01-25T18:48:53.226Z,4.90
2023-01-25T18:51:19.997Z,4.25
2023-01-25T18:53:47.640Z,3.35
2023-01-25T18:56:19.572Z,3.95
2023-01-25T19:01:18.971Z,4.30
2023-01-25T19:03:48.702Z,3.97
2023-01-25T19:06:15.949Z,4.55
2023-01-25T19:08:44.472Z,3.58
2023-01-25T19:11:16.174Z,4.28
2023-01-25T19:13:43.859Z,3.65
2023-01-25T19:16:17.124Z,2.95
2023-01-25T19:18:47.070Z,3.22
2023-01-25T19:21:25.456Z,3.35
2023-01-25T19:23:53.868Z,4.03
2023-01-25T19:26:25.020Z,3.85
2023-01-25T19:28:52.875Z,3.92
2023-01-25T19:31:22.255Z,4.45
2023-01-25T19:33:55.181Z,4.70
2023-01-25T19:36:21.998Z,5.40
2023-01-25T19:38:49.342Z,4.85
2023-01-25T19:41:19.095Z,4.30
2023-01-25T19:43:46.209Z,3.60
2023-01-25T19:46:18.400Z,2.97
2023-01-25T19:48:49.951Z,3.85
2023-01-25T19:51:23.985Z,4.13
2023-01-25T19:53:59.895Z,3.53
2023-01-25T19:56:28.371Z,3.47
2023-01-25T19:58:55.023Z,4.60
2023-01-25T20:01:24.687Z,3.80
2023-01-25T20:03:52.094Z,4.00
2023-01-25T20:06:20.326Z,3.75
2023-01-25T20:08:47.819Z,4.00
2023-01-25T20:11:22.999Z,4.30
2023-01-25T20:13:51.839Z,4.50
2023-01-25T20:16:19.193Z,3.35
2023-01-25T20:18:47.626Z,3.90
2023-01-25T20:21:25.709Z,3.38
2023-01-25T20:23:57.069Z,2.75
2023-01-25T20:26:29.901Z,2.60
2023-01-25T20:28:57.636Z,3.90
2023-01-25T20:31:33.821Z,2.97
2023-01-25T20:34:06.717Z,3.47
2023-01-25T20:36:34.877Z,3.65
2023-01-25T20:39:01.703Z,2.95
2023-01-25T20:41:28.488Z,3.67
2023-01-25T20:44:04.497Z,3.15
2023-01-25T20:46:33.921Z,4.15
2023-01-25T20:49:01.895Z,3.63
2023-01-25T20:51:29.549Z,2.95
2023-01-25T20:53:56.896Z,2.70
2023-01-25T20:56:23.798Z,3.20
2023-01-25T20:58:51.500Z,3.70
2023-01-25T21:01:20.229Z,4.28
2023-01-25T21:03:47.305Z,2.83
2023-01-25T21:06:14.047Z,3.65
2023-01-25T21:08:40.664Z,4.18
2023-01-25T21:11:08.269Z,3.85
2023-01-25T21:13:34.960Z,2.58
2023-01-25T21:16:04.862Z,3.65
2023-01-25T21:18:34.043Z,3.83
2023-01-25T21:21:07.294Z,3.40
2023-01-25T21:23:35.145Z,3.60
2023-01-25T21:26:03.257Z,4.85
2023-01-25T21:28:30.171Z,3.10
2023-01-25T21:30:56.954Z,4.65
2023-01-25T21:33:23.658Z,3.90
2023-01-25T21:35:54.297Z,4.30
2023-01-25T21:38:21.432Z,3.50
2023-01-25T21:40:48.064Z,3.08
2023-01-25T21:43:17.845Z,4.10
2023-01-25T21:46:03.518Z,3.13
2023-01-25T21:48:51.752Z,2.90
2023-01-25T21:51:51.042Z,3.65
2023-01-25T21:54:26.401Z,3.30
2023-01-25T21:56:55.594Z,3.88
2023-01-25T21:59:22.523Z,3.60
2023-01-25T22:01:49.677Z,4.22
2023-01-25T22:04:18.982Z,4.35
2023-01-25T22:06:46.188Z,4.20
2023-01-25T22:09:13.380Z,3.58
2023-01-25T22:11:40.229Z,4.18
2023-01-25T22:14:07.214Z,4.32
2023-01-25T22:16:34.030Z,4.07
2023-01-25T22:19:00.609Z,4.50
2023-01-25T22:21:33.665Z,3.63
2023-01-25T22:24:02.517Z,3.58
2023-01-25T22:27:13.911Z,3.65
2023-01-25T22:29:40.464Z,3.58
2023-01-25T22:32:07.114Z,4.32
2023-01-25T22:34:33.817Z,3.40
2023-01-25T22:37:00.404Z,4.53
2023-01-25T22:39:27.015Z,4.80
2023-01-25T22:41:53.611Z,3.65
2023-01-25T22:44:20.174Z,3.85
2023-01-25T22:46:47.370Z,4.05
2023-01-25T22:49:14.300Z,4.13
2023-01-25T22:51:40.878Z,3.90
2023-01-25T22:54:08.015Z,3.58
2023-01-25T22:56:34.652Z,3.88
2023-01-25T22:59:01.987Z,3.88
2023-01-25T23:01:31.140Z,3.53
2023-01-25T23:03:58.416Z,4.22
2023-01-25T23:06:27.326Z,4.03
2023-01-25T23:08:56.152Z,3.90
2023-01-25T23:11:24.635Z,4.10
2023-01-25T23:14:11.683Z,3.20
2023-01-25T23:16:38.268Z,3.25
2023-01-25T23:19:05.195Z,3.88
2023-01-25T23:21:32.341Z,5.10
2023-01-25T23:24:00.965Z,4.28
2023-01-25T23:26:28.111Z,3.78
2023-01-25T23:28:56.925Z,3.78
2023-01-25T23:31:25.222Z,4.53
2023-01-25T23:33:54.731Z,4.15
2023-01-25T23:36:24.096Z,3.90
2023-01-25T23:38:50.866Z,3.08
2023-01-25T23:41:19.123Z,3.60
2023-01-25T23:43:46.142Z,4.25
2023-01-25T23:46:16.016Z,4.00
2023-01-25T23:48:43.999Z,2.88
2023-01-25T23:51:12.064Z,3.13
2023-01-25T23:53:39.361Z,4.20
2023-01-25T23:56:09.104Z,4.32
2023-01-25T23:58:37.733Z,3.40
